sensor_id;sensor_type;location;lat;lon;timestamp;temperature;humidity
44190;DHT22;29856;52.144;5.430;2022-08-19T00:01:41;20.10;99.90
44190;DHT22;29856;52.144;5.430;2022-08-19T00:04:10;20.10;99.90
44190;DHT22;29856;52.144;5.430;2022-08-19T00:06:37;20.10;99.90
44190;DHT22;29856;52.144;5.430;2022-08-19T00:09:04;20.20;99.90
44190;DHT22;29856;52.144;5.430;2022-08-19T00:11:30;20.10;99.90
44190;DHT22;29856;52.144;5.430;2022-08-19T00:13:56;20.20;99.90
44190;DHT22;29856;52.144;5.430;2022-08-19T00:16:23;20.00;99.90
44190;DHT22;29856;52.144;5.430;2022-08-19T00:18:48;20.10;99.90
44190;DHT22;29856;52.144;5.430;2022-08-19T00:21:14;20.10;99.90
44190;DHT22;29856;52.144;5.430;2022-08-19T00:23:40;20.20;99.90
44190;DHT22;29856;52.144;5.430;2022-08-19T00:26:07;20.00;99.90
44190;DHT22;29856;52.144;5.430;2022-08-19T00:28:33;20.00;99.90
44190;DHT22;29856;52.144;5.430;2022-08-19T00:30:59;19.80;99.90
44190;DHT22;29856;52.144;5.430;2022-08-19T00:33:25;19.90;99.90
44190;DHT22;29856;52.144;5.430;2022-08-19T00:35:51;19.80;99.90
44190;DHT22;29856;52.144;5.430;2022-08-19T00:38:16;19.90;99.90
44190;DHT22;29856;52.144;5.430;2022-08-19T00:40:43;19.80;99.90
44190;DHT22;29856;52.144;5.430;2022-08-19T00:43:10;19.70;99.90
44190;DHT22;29856;52.144;5.430;2022-08-19T00:45:36;19.70;99.90
44190;DHT22;29856;52.144;5.430;2022-08-19T00:48:02;19.50;99.90
44190;DHT22;29856;52.144;5.430;2022-08-19T00:50:28;19.50;99.90
44190;DHT22;29856;52.144;5.430;2022-08-19T00:52:54;19.70;99.90
44190;DHT22;29856;52.144;5.430;2022-08-19T00:55:23;19.70;99.90
44190;DHT22;29856;52.144;5.430;2022-08-19T00:57:56;19.70;99.90
44190;DHT22;29856;52.144;5.430;2022-08-19T01:00:24;19.80;99.90
44190;DHT22;29856;52.144;5.430;2022-08-19T01:02:50;19.80;99.90
44190;DHT22;29856;52.144;5.430;2022-08-19T01:05:20;19.80;99.90
44190;DHT22;29856;52.144;5.430;2022-08-19T01:07:47;19.90;99.90
44190;DHT22;29856;52.144;5.430;2022-08-19T01:10:16;19.80;99.90
44190;DHT22;29856;52.144;5.430;2022-08-19T01:12:42;19.60;99.90
44190;DHT22;29856;52.144;5.430;2022-08-19T01:15:11;19.50;99.90
44190;DHT22;29856;52.144;5.430;2022-08-19T01:17:38;19.60;99.90
44190;DHT22;29856;52.144;5.430;2022-08-19T01:20:06;19.50;99.90
44190;DHT22;29856;52.144;5.430;2022-08-19T01:22:47;19.50;99.90
44190;DHT22;29856;52.144;5.430;2022-08-19T01:25:15;19.50;99.90
44190;DHT22;29856;52.144;5.430;2022-08-19T01:27:43;19.40;99.90
44190;DHT22;29856;52.144;5.430;2022-08-19T01:30:12;19.40;99.90
44190;DHT22;29856;52.144;5.430;2022-08-19T01:32:38;19.40;99.90
44190;DHT22;29856;52.144;5.430;2022-08-19T01:35:04;19.40;99.90
44190;DHT22;29856;52.144;5.430;2022-08-19T01:37:40;19.20;99.90
44190;DHT22;29856;52.144;5.430;2022-08-19T01:40:07;19.10;99.90
44190;DHT22;29856;52.144;5.430;2022-08-19T01:42:32;19.10;99.90
44190;DHT22;29856;52.144;5.430;2022-08-19T01:44:58;19.10;99.90
44190;DHT22;29856;52.144;5.430;2022-08-19T01:47:23;19.20;99.90
44190;DHT22;29856;52.144;5.430;2022-08-19T01:49:49;19.20;99.90
44190;DHT22;29856;52.144;5.430;2022-08-19T01:52:14;19.30;99.90
44190;DHT22;29856;52.144;5.430;2022-08-19T01:54:40;19.30;99.90
44190;DHT22;29856;52.144;5.430;2022-08-19T01:57:08;19.40;99.90
44190;DHT22;29856;52.144;5.430;2022-08-19T01:59:35;19.40;99.90
44190;DHT22;29856;52.144;5.430;2022-08-19T02:02:01;19.50;99.90
44190;DHT22;29856;52.144;5.430;2022-08-19T02:04:26;19.40;99.90
44190;DHT22;29856;52.144;5.430;2022-08-19T02:06:52;19.40;99.90
44190;DHT22;29856;52.144;5.430;2022-08-19T02:09:17;19.20;99.90
44190;DHT22;29856;52.144;5.430;2022-08-19T02:11:43;19.10;99.90
44190;DHT22;29856;52.144;5.430;2022-08-19T02:14:08;18.90;99.90
44190;DHT22;29856;52.144;5.430;2022-08-19T02:16:35;18.90;99.90
44190;DHT22;29856;52.144;5.430;2022-08-19T02:19:01;18.80;99.90
44190;DHT22;29856;52.144;5.430;2022-08-19T02:21:28;18.70;99.90
44190;DHT22;29856;52.144;5.430;2022-08-19T02:23:53;18.70;99.90
44190;DHT22;29856;52.144;5.430;2022-08-19T02:26:19;18.60;99.90
44190;DHT22;29856;52.144;5.430;2022-08-19T02:28:45;18.60;99.90
44190;DHT22;29856;52.144;5.430;2022-08-19T02:31:12;18.50;99.90
44190;DHT22;29856;52.144;5.430;2022-08-19T02:33:38;18.60;99.90
44190;DHT22;29856;52.144;5.430;2022-08-19T02:36:05;18.50;99.90
44190;DHT22;29856;52.144;5.430;2022-08-19T02:38:31;18.60;99.90
44190;DHT22;29856;52.144;5.430;2022-08-19T02:41:03;18.60;99.90
44190;DHT22;29856;52.144;5.430;2022-08-19T02:43:31;18.70;99.90
44190;DHT22;29856;52.144;5.430;2022-08-19T02:45:57;18.80;99.90
44190;DHT22;29856;52.144;5.430;2022-08-19T02:48:24;18.80;99.90
44190;DHT22;29856;52.144;5.430;2022-08-19T02:50:52;18.80;99.90
44190;DHT22;29856;52.144;5.430;2022-08-19T02:53:18;18.80;99.90
44190;DHT22;29856;52.144;5.430;2022-08-19T02:55:45;18.80;99.90
44190;DHT22;29856;52.144;5.430;2022-08-19T02:58:12;18.80;99.90
44190;DHT22;29856;52.144;5.430;2022-08-19T03:00:48;18.90;99.90
44190;DHT22;29856;52.144;5.430;2022-08-19T03:03:15;18.90;99.90
44190;DHT22;29856;52.144;5.430;2022-08-19T03:05:41;18.80;99.90
44190;DHT22;29856;52.144;5.430;2022-08-19T03:08:06;18.90;99.90
44190;DHT22;29856;52.144;5.430;2022-08-19T03:10:32;18.80;99.90
44190;DHT22;29856;52.144;5.430;2022-08-19T03:12:58;18.80;99.90
44190;DHT22;29856;52.144;5.430;2022-08-19T03:15:23;18.70;99.90
44190;DHT22;29856;52.144;5.430;2022-08-19T03:17:49;18.70;99.90
44190;DHT22;29856;52.144;5.430;2022-08-19T03:20:14;18.60;99.90
44190;DHT22;29856;52.144;5.430;2022-08-19T03:22:40;18.40;99.90
44190;DHT22;29856;52.144;5.430;2022-08-19T03:25:05;18.20;99.90
44190;DHT22;29856;52.144;5.430;2022-08-19T03:27:31;18.10;99.90
44190;DHT22;29856;52.144;5.430;2022-08-19T03:29:56;17.90;99.90
44190;DHT22;29856;52.144;5.430;2022-08-19T03:32:22;17.80;99.90
44190;DHT22;29856;52.144;5.430;2022-08-19T03:34:48;17.60;99.90
44190;DHT22;29856;52.144;5.430;2022-08-19T03:37:13;17.60;99.90
44190;DHT22;29856;52.144;5.430;2022-08-19T03:39:40;17.50;99.90
44190;DHT22;29856;52.144;5.430;2022-08-19T03:42:05;17.60;99.90
44190;DHT22;29856;52.144;5.430;2022-08-19T03:44:32;17.70;99.90
44190;DHT22;29856;52.144;5.430;2022-08-19T03:46:58;17.80;99.90
44190;DHT22;29856;52.144;5.430;2022-08-19T03:49:32;17.80;99.90
44190;DHT22;29856;52.144;5.430;2022-08-19T03:51:58;17.80;99.90
44190;DHT22;29856;52.144;5.430;2022-08-19T03:54:25;17.70;99.90
44190;DHT22;29856;52.144;5.430;2022-08-19T03:56:53;17.70;99.90
44190;DHT22;29856;52.144;5.430;2022-08-19T03:59:27;17.70;99.90
44190;DHT22;29856;52.144;5.430;2022-08-19T04:01:55;17.60;99.90
44190;DHT22;29856;52.144;5.430;2022-08-19T04:04:21;17.50;99.90
44190;DHT22;29856;52.144;5.430;2022-08-19T04:06:47;17.50;99.90
44190;DHT22;29856;52.144;5.430;2022-08-19T04:09:12;17.30;99.90
44190;DHT22;29856;52.144;5.430;2022-08-19T04:11:43;17.30;99.90
44190;DHT22;29856;52.144;5.430;2022-08-19T04:14:11;17.20;99.90
44190;DHT22;29856;52.144;5.430;2022-08-19T04:16:37;17.20;99.90
44190;DHT22;29856;52.144;5.430;2022-08-19T04:19:04;17.20;99.90
44190;DHT22;29856;52.144;5.430;2022-08-19T04:21:30;17.10;99.90
44190;DHT22;29856;52.144;5.430;2022-08-19T04:23:56;17.20;99.90
44190;DHT22;29856;52.144;5.430;2022-08-19T04:26:24;17.40;99.90
44190;DHT22;29856;52.144;5.430;2022-08-19T04:28:51;17.60;99.90
44190;DHT22;29856;52.144;5.430;2022-08-19T04:31:29;17.50;99.90
44190;DHT22;29856;52.144;5.430;2022-08-19T04:33:59;17.50;99.90
44190;DHT22;29856;52.144;5.430;2022-08-19T04:36:28;17.70;99.90
44190;DHT22;29856;52.144;5.430;2022-08-19T04:38:56;17.70;99.90
44190;DHT22;29856;52.144;5.430;2022-08-19T04:41:23;17.80;99.90
44190;DHT22;29856;52.144;5.430;2022-08-19T04:43:48;17.70;99.90
44190;DHT22;29856;52.144;5.430;2022-08-19T04:46:14;17.90;99.90
44190;DHT22;29856;52.144;5.430;2022-08-19T04:48:39;17.70;99.90
44190;DHT22;29856;52.144;5.430;2022-08-19T04:51:10;17.70;99.90
44190;DHT22;29856;52.144;5.430;2022-08-19T04:53:37;17.60;99.90
44190;DHT22;29856;52.144;5.430;2022-08-19T04:56:10;17.60;99.90
44190;DHT22;29856;52.144;5.430;2022-08-19T04:58:37;17.70;99.90
44190;DHT22;29856;52.144;5.430;2022-08-19T05:01:04;17.70;99.90
44190;DHT22;29856;52.144;5.430;2022-08-19T05:03:29;17.80;99.90
44190;DHT22;29856;52.144;5.430;2022-08-19T05:05:55;17.80;99.90
44190;DHT22;29856;52.144;5.430;2022-08-19T05:08:21;17.80;99.90
44190;DHT22;29856;52.144;5.430;2022-08-19T05:10:48;17.90;99.90
44190;DHT22;29856;52.144;5.430;2022-08-19T05:13:15;17.90;99.90
44190;DHT22;29856;52.144;5.430;2022-08-19T05:15:43;17.80;99.90
44190;DHT22;29856;52.144;5.430;2022-08-19T05:18:09;17.80;99.90
44190;DHT22;29856;52.144;5.430;2022-08-19T05:20:38;17.90;99.90
44190;DHT22;29856;52.144;5.430;2022-08-19T05:23:03;17.90;99.90
44190;DHT22;29856;52.144;5.430;2022-08-19T05:25:29;17.80;99.90
44190;DHT22;29856;52.144;5.430;2022-08-19T05:27:54;17.80;99.90
44190;DHT22;29856;52.144;5.430;2022-08-19T05:30:19;17.70;99.90
44190;DHT22;29856;52.144;5.430;2022-08-19T05:32:45;17.80;99.90
44190;DHT22;29856;52.144;5.430;2022-08-19T05:35:11;17.80;99.90
44190;DHT22;29856;52.144;5.430;2022-08-19T05:37:36;17.90;99.90
44190;DHT22;29856;52.144;5.430;2022-08-19T05:40:03;17.90;99.90
44190;DHT22;29856;52.144;5.430;2022-08-19T05:42:29;18.00;99.90
44190;DHT22;29856;52.144;5.430;2022-08-19T05:44:54;18.00;99.90
44190;DHT22;29856;52.144;5.430;2022-08-19T05:47:20;18.10;99.90
44190;DHT22;29856;52.144;5.430;2022-08-19T05:49:45;18.10;99.90
44190;DHT22;29856;52.144;5.430;2022-08-19T05:52:13;18.20;99.90
44190;DHT22;29856;52.144;5.430;2022-08-19T05:54:40;18.20;99.90
44190;DHT22;29856;52.144;5.430;2022-08-19T05:57:06;18.30;99.90
44190;DHT22;29856;52.144;5.430;2022-08-19T05:59:32;18.40;99.90
44190;DHT22;29856;52.144;5.430;2022-08-19T06:01:58;18.40;99.90
44190;DHT22;29856;52.144;5.430;2022-08-19T06:04:23;18.40;99.90
44190;DHT22;29856;52.144;5.430;2022-08-19T06:06:52;18.50;99.90
44190;DHT22;29856;52.144;5.430;2022-08-19T06:09:18;18.50;99.90
44190;DHT22;29856;52.144;5.430;2022-08-19T06:11:47;18.60;99.90
44190;DHT22;29856;52.144;5.430;2022-08-19T06:14:16;18.60;99.90
44190;DHT22;29856;52.144;5.430;2022-08-19T06:16:42;18.60;99.90
44190;DHT22;29856;52.144;5.430;2022-08-19T06:19:11;18.70;99.90
44190;DHT22;29856;52.144;5.430;2022-08-19T06:21:38;18.80;99.90
44190;DHT22;29856;52.144;5.430;2022-08-19T06:24:07;18.80;99.90
44190;DHT22;29856;52.144;5.430;2022-08-19T06:26:38;18.90;99.90
44190;DHT22;29856;52.144;5.430;2022-08-19T06:29:05;18.90;99.90
44190;DHT22;29856;52.144;5.430;2022-08-19T06:31:32;19.00;99.90
44190;DHT22;29856;52.144;5.430;2022-08-19T06:33:59;19.10;99.90
44190;DHT22;29856;52.144;5.430;2022-08-19T06:36:31;19.20;99.90
44190;DHT22;29856;52.144;5.430;2022-08-19T06:38:58;19.30;99.90
44190;DHT22;29856;52.144;5.430;2022-08-19T06:41:27;19.40;99.90
44190;DHT22;29856;52.144;5.430;2022-08-19T06:43:53;19.60;99.90
44190;DHT22;29856;52.144;5.430;2022-08-19T06:46:19;19.60;99.90
44190;DHT22;29856;52.144;5.430;2022-08-19T06:48:46;19.70;99.90
44190;DHT22;29856;52.144;5.430;2022-08-19T06:51:14;19.80;99.90
44190;DHT22;29856;52.144;5.430;2022-08-19T06:53:40;19.90;99.90
44190;DHT22;29856;52.144;5.430;2022-08-19T06:56:05;19.90;99.90
44190;DHT22;29856;52.144;5.430;2022-08-19T06:58:31;19.90;99.90
44190;DHT22;29856;52.144;5.430;2022-08-19T07:01:02;20.00;99.90
44190;DHT22;29856;52.144;5.430;2022-08-19T07:03:32;20.00;99.90
44190;DHT22;29856;52.144;5.430;2022-08-19T07:06:07;20.10;99.90
44190;DHT22;29856;52.144;5.430;2022-08-19T07:08:33;20.10;99.90
44190;DHT22;29856;52.144;5.430;2022-08-19T07:10:59;20.10;99.90
44190;DHT22;29856;52.144;5.430;2022-08-19T07:13:24;20.10;99.90
44190;DHT22;29856;52.144;5.430;2022-08-19T07:15:50;20.10;99.90
44190;DHT22;29856;52.144;5.430;2022-08-19T07:18:18;20.10;99.90
44190;DHT22;29856;52.144;5.430;2022-08-19T07:20:44;20.10;99.90
44190;DHT22;29856;52.144;5.430;2022-08-19T07:23:09;20.10;99.90
44190;DHT22;29856;52.144;5.430;2022-08-19T07:25:36;20.10;99.90
44190;DHT22;29856;52.144;5.430;2022-08-19T07:28:02;20.20;99.90
44190;DHT22;29856;52.144;5.430;2022-08-19T07:30:28;20.20;99.90
44190;DHT22;29856;52.144;5.430;2022-08-19T07:32:54;20.20;99.90
44190;DHT22;29856;52.144;5.430;2022-08-19T07:35:19;20.20;99.90
44190;DHT22;29856;52.144;5.430;2022-08-19T07:37:45;20.30;99.90
44190;DHT22;29856;52.144;5.430;2022-08-19T07:40:11;20.30;99.90
44190;DHT22;29856;52.144;5.430;2022-08-19T07:42:37;20.30;99.90
44190;DHT22;29856;52.144;5.430;2022-08-19T07:45:03;20.30;99.90
44190;DHT22;29856;52.144;5.430;2022-08-19T07:47:29;20.30;99.90
44190;DHT22;29856;52.144;5.430;2022-08-19T07:49:54;20.20;99.90
44190;DHT22;29856;52.144;5.430;2022-08-19T07:52:20;20.30;99.90
44190;DHT22;29856;52.144;5.430;2022-08-19T07:54:45;20.30;99.90
44190;DHT22;29856;52.144;5.430;2022-08-19T07:57:11;20.30;99.90
44190;DHT22;29856;52.144;5.430;2022-08-19T07:59:36;20.50;99.90
44190;DHT22;29856;52.144;5.430;2022-08-19T08:02:02;20.50;99.90
44190;DHT22;29856;52.144;5.430;2022-08-19T08:04:52;20.70;99.90
44190;DHT22;29856;52.144;5.430;2022-08-19T08:07:18;20.70;99.90
44190;DHT22;29856;52.144;5.430;2022-08-19T08:09:45;20.70;99.90
44190;DHT22;29856;52.144;5.430;2022-08-19T08:12:16;20.80;99.90
44190;DHT22;29856;52.144;5.430;2022-08-19T08:14:44;20.80;99.90
44190;DHT22;29856;52.144;5.430;2022-08-19T08:17:10;20.80;99.90
44190;DHT22;29856;52.144;5.430;2022-08-19T08:19:36;20.80;99.90
44190;DHT22;29856;52.144;5.430;2022-08-19T08:22:03;20.80;99.90
44190;DHT22;29856;52.144;5.430;2022-08-19T08:24:29;20.90;99.90
44190;DHT22;29856;52.144;5.430;2022-08-19T08:26:56;21.00;99.90
44190;DHT22;29856;52.144;5.430;2022-08-19T08:29:21;21.00;99.90
44190;DHT22;29856;52.144;5.430;2022-08-19T08:31:47;21.00;99.90
44190;DHT22;29856;52.144;5.430;2022-08-19T08:34:13;21.00;99.90
44190;DHT22;29856;52.144;5.430;2022-08-19T08:36:42;21.00;99.90
44190;DHT22;29856;52.144;5.430;2022-08-19T08:39:09;21.00;99.90
44190;DHT22;29856;52.144;5.430;2022-08-19T08:42:05;20.90;99.90
44190;DHT22;29856;52.144;5.430;2022-08-19T08:45:01;21.10;99.90
44190;DHT22;29856;52.144;5.430;2022-08-19T08:47:35;21.20;99.90
44190;DHT22;29856;52.144;5.430;2022-08-19T08:50:35;21.50;99.90
44190;DHT22;29856;52.144;5.430;2022-08-19T08:53:05;21.60;99.90
44190;DHT22;29856;52.144;5.430;2022-08-19T08:55:31;21.90;99.90
44190;DHT22;29856;52.144;5.430;2022-08-19T09:00:34;22.30;99.90
44190;DHT22;29856;52.144;5.430;2022-08-19T09:03:03;22.40;99.90
44190;DHT22;29856;52.144;5.430;2022-08-19T09:08:38;22.50;99.90
44190;DHT22;29856;52.144;5.430;2022-08-19T09:11:11;22.60;99.90
44190;DHT22;29856;52.144;5.430;2022-08-19T09:13:53;22.80;99.90
44190;DHT22;29856;52.144;5.430;2022-08-19T09:16:22;23.00;99.90
44190;DHT22;29856;52.144;5.430;2022-08-19T09:18:51;23.20;99.90
44190;DHT22;29856;52.144;5.430;2022-08-19T09:21:16;23.30;99.90
44190;DHT22;29856;52.144;5.430;2022-08-19T09:23:42;23.30;99.90
44190;DHT22;29856;52.144;5.430;2022-08-19T09:26:10;23.50;99.90
44190;DHT22;29856;52.144;5.430;2022-08-19T09:28:36;23.40;99.90
44190;DHT22;29856;52.144;5.430;2022-08-19T09:31:01;23.30;99.90
44190;DHT22;29856;52.144;5.430;2022-08-19T09:33:26;23.50;99.90
44190;DHT22;29856;52.144;5.430;2022-08-19T09:36:02;23.80;99.90
44190;DHT22;29856;52.144;5.430;2022-08-19T09:38:28;24.00;99.90
44190;DHT22;29856;52.144;5.430;2022-08-19T09:40:53;24.20;99.90
44190;DHT22;29856;52.144;5.430;2022-08-19T09:43:19;24.30;99.90
44190;DHT22;29856;52.144;5.430;2022-08-19T09:45:44;24.50;99.90
44190;DHT22;29856;52.144;5.430;2022-08-19T09:48:10;24.70;99.90
44190;DHT22;29856;52.144;5.430;2022-08-19T09:50:35;24.50;99.90
44190;DHT22;29856;52.144;5.430;2022-08-19T09:53:01;24.50;99.90
44190;DHT22;29856;52.144;5.430;2022-08-19T09:55:26;24.50;99.90
44190;DHT22;29856;52.144;5.430;2022-08-19T09:57:53;24.60;99.90
44190;DHT22;29856;52.144;5.430;2022-08-19T10:00:19;24.80;99.90
44190;DHT22;29856;52.144;5.430;2022-08-19T10:02:44;24.70;99.90
44190;DHT22;29856;52.144;5.430;2022-08-19T10:05:09;24.80;99.90
44190;DHT22;29856;52.144;5.430;2022-08-19T10:07:36;24.90;99.90
44190;DHT22;29856;52.144;5.430;2022-08-19T10:10:05;25.00;99.90
44190;DHT22;29856;52.144;5.430;2022-08-19T10:12:30;25.10;99.90
44190;DHT22;29856;52.144;5.430;2022-08-19T10:14:56;25.30;99.90
44190;DHT22;29856;52.144;5.430;2022-08-19T10:17:21;25.30;99.90
44190;DHT22;29856;52.144;5.430;2022-08-19T10:19:47;24.90;99.90
44190;DHT22;29856;52.144;5.430;2022-08-19T10:22:12;25.10;99.90
44190;DHT22;29856;52.144;5.430;2022-08-19T10:24:38;24.60;99.90
44190;DHT22;29856;52.144;5.430;2022-08-19T10:27:03;24.90;99.90
44190;DHT22;29856;52.144;5.430;2022-08-19T10:29:30;25.00;99.90
44190;DHT22;29856;52.144;5.430;2022-08-19T10:31:55;25.30;99.90
44190;DHT22;29856;52.144;5.430;2022-08-19T10:34:21;25.60;99.90
44190;DHT22;29856;52.144;5.430;2022-08-19T10:36:46;25.60;99.90
44190;DHT22;29856;52.144;5.430;2022-08-19T10:39:12;25.70;99.90
44190;DHT22;29856;52.144;5.430;2022-08-19T10:41:38;25.80;99.90
44190;DHT22;29856;52.144;5.430;2022-08-19T10:44:07;25.90;99.90
44190;DHT22;29856;52.144;5.430;2022-08-19T10:46:36;25.90;99.90
44190;DHT22;29856;52.144;5.430;2022-08-19T10:49:03;26.00;99.90
44190;DHT22;29856;52.144;5.430;2022-08-19T10:51:30;26.10;99.90
44190;DHT22;29856;52.144;5.430;2022-08-19T10:53:56;26.20;99.90
44190;DHT22;29856;52.144;5.430;2022-08-19T10:56:22;26.40;99.90
44190;DHT22;29856;52.144;5.430;2022-08-19T10:58:48;26.40;99.90
44190;DHT22;29856;52.144;5.430;2022-08-19T11:01:13;26.50;99.90
44190;DHT22;29856;52.144;5.430;2022-08-19T11:03:38;26.50;99.90
44190;DHT22;29856;52.144;5.430;2022-08-19T11:06:07;26.60;99.90
44190;DHT22;29856;52.144;5.430;2022-08-19T11:08:34;26.60;99.90
44190;DHT22;29856;52.144;5.430;2022-08-19T11:11:01;26.80;99.90
44190;DHT22;29856;52.144;5.430;2022-08-19T11:13:29;26.90;99.90
44190;DHT22;29856;52.144;5.430;2022-08-19T11:16:05;26.80;99.90
44190;DHT22;29856;52.144;5.430;2022-08-19T11:18:31;27.00;99.90
44190;DHT22;29856;52.144;5.430;2022-08-19T11:21:12;27.00;99.90
44190;DHT22;29856;52.144;5.430;2022-08-19T11:23:38;26.90;99.90
44190;DHT22;29856;52.144;5.430;2022-08-19T11:26:04;26.70;99.90
44190;DHT22;29856;52.144;5.430;2022-08-19T11:28:29;26.70;99.90
44190;DHT22;29856;52.144;5.430;2022-08-19T11:30:55;26.90;99.90
44190;DHT22;29856;52.144;5.430;2022-08-19T11:33:20;27.00;99.90
44190;DHT22;29856;52.144;5.430;2022-08-19T11:35:46;27.10;99.90
44190;DHT22;29856;52.144;5.430;2022-08-19T11:38:11;27.20;99.90
44190;DHT22;29856;52.144;5.430;2022-08-19T11:40:37;27.50;99.90
44190;DHT22;29856;52.144;5.430;2022-08-19T11:43:02;27.40;99.90
44190;DHT22;29856;52.144;5.430;2022-08-19T11:45:28;27.20;99.90
44190;DHT22;29856;52.144;5.430;2022-08-19T11:47:53;27.20;99.90
44190;DHT22;29856;52.144;5.430;2022-08-19T11:50:19;27.20;99.90
44190;DHT22;29856;52.144;5.430;2022-08-19T11:52:45;27.30;99.90
44190;DHT22;29856;52.144;5.430;2022-08-19T11:55:13;27.50;99.90
44190;DHT22;29856;52.144;5.430;2022-08-19T11:57:38;27.80;99.90
44190;DHT22;29856;52.144;5.430;2022-08-19T12:00:04;27.90;99.90
44190;DHT22;29856;52.144;5.430;2022-08-19T12:02:30;27.50;99.90
44190;DHT22;29856;52.144;5.430;2022-08-19T12:04:55;27.80;99.90
44190;DHT22;29856;52.144;5.430;2022-08-19T12:07:21;27.40;99.90
44190;DHT22;29856;52.144;5.430;2022-08-19T12:09:46;27.50;99.90
44190;DHT22;29856;52.144;5.430;2022-08-19T12:12:12;27.80;99.90
44190;DHT22;29856;52.144;5.430;2022-08-19T12:14:37;27.70;99.90
44190;DHT22;29856;52.144;5.430;2022-08-19T12:17:03;27.50;99.90
44190;DHT22;29856;52.144;5.430;2022-08-19T12:19:28;27.60;99.90
44190;DHT22;29856;52.144;5.430;2022-08-19T12:21:58;27.60;99.90
44190;DHT22;29856;52.144;5.430;2022-08-19T12:24:24;27.40;99.90
44190;DHT22;29856;52.144;5.430;2022-08-19T12:26:50;27.30;99.90
44190;DHT22;29856;52.144;5.430;2022-08-19T12:29:16;27.30;99.90
44190;DHT22;29856;52.144;5.430;2022-08-19T12:31:41;27.20;99.90
44190;DHT22;29856;52.144;5.430;2022-08-19T12:34:06;26.90;99.90
44190;DHT22;29856;52.144;5.430;2022-08-19T12:36:33;26.60;99.90
44190;DHT22;29856;52.144;5.430;2022-08-19T12:38:59;26.50;99.90
44190;DHT22;29856;52.144;5.430;2022-08-19T12:41:25;26.50;99.90
44190;DHT22;29856;52.144;5.430;2022-08-19T12:43:51;26.00;99.90
44190;DHT22;29856;52.144;5.430;2022-08-19T12:46:17;25.90;99.90
44190;DHT22;29856;52.144;5.430;2022-08-19T12:48:43;25.70;99.90
44190;DHT22;29856;52.144;5.430;2022-08-19T12:51:12;25.80;99.90
44190;DHT22;29856;52.144;5.430;2022-08-19T12:53:38;25.40;99.90
44190;DHT22;29856;52.144;5.430;2022-08-19T12:56:04;25.20;99.90
44190;DHT22;29856;52.144;5.430;2022-08-19T12:58:29;24.50;99.90
44190;DHT22;29856;52.144;5.430;2022-08-19T13:00:55;24.50;99.90
44190;DHT22;29856;52.144;5.430;2022-08-19T13:03:21;24.90;99.90
44190;DHT22;29856;52.144;5.430;2022-08-19T13:05:46;24.90;99.90
44190;DHT22;29856;52.144;5.430;2022-08-19T13:08:12;24.50;99.90
44190;DHT22;29856;52.144;5.430;2022-08-19T13:10:37;24.50;99.90
44190;DHT22;29856;52.144;5.430;2022-08-19T13:13:06;24.20;99.90
44190;DHT22;29856;52.144;5.430;2022-08-19T13:15:36;24.00;99.90
44190;DHT22;29856;52.144;5.430;2022-08-19T13:18:02;24.10;99.90
44190;DHT22;29856;52.144;5.430;2022-08-19T13:20:28;24.20;99.90
44190;DHT22;29856;52.144;5.430;2022-08-19T13:22:54;24.10;99.90
44190;DHT22;29856;52.144;5.430;2022-08-19T13:25:20;24.10;99.90
44190;DHT22;29856;52.144;5.430;2022-08-19T13:27:50;23.90;99.90
44190;DHT22;29856;52.144;5.430;2022-08-19T13:30:16;24.10;99.90
44190;DHT22;29856;52.144;5.430;2022-08-19T13:32:42;23.70;99.90
44190;DHT22;29856;52.144;5.430;2022-08-19T13:35:07;23.70;99.90
44190;DHT22;29856;52.144;5.430;2022-08-19T13:37:33;23.60;99.90
44190;DHT22;29856;52.144;5.430;2022-08-19T13:39:58;23.50;99.90
44190;DHT22;29856;52.144;5.430;2022-08-19T13:42:24;23.50;99.90
44190;DHT22;29856;52.144;5.430;2022-08-19T13:44:49;23.70;99.90
44190;DHT22;29856;52.144;5.430;2022-08-19T13:47:14;23.80;99.90
44190;DHT22;29856;52.144;5.430;2022-08-19T13:49:40;23.50;99.90
44190;DHT22;29856;52.144;5.430;2022-08-19T13:52:05;23.70;99.90
44190;DHT22;29856;52.144;5.430;2022-08-19T13:54:31;23.50;99.90
44190;DHT22;29856;52.144;5.430;2022-08-19T13:56:56;23.60;99.90
44190;DHT22;29856;52.144;5.430;2022-08-19T13:59:22;23.70;99.90
44190;DHT22;29856;52.144;5.430;2022-08-19T14:01:47;23.80;99.90
44190;DHT22;29856;52.144;5.430;2022-08-19T14:04:13;23.80;99.90
44190;DHT22;29856;52.144;5.430;2022-08-19T14:06:38;23.80;99.90
44190;DHT22;29856;52.144;5.430;2022-08-19T14:09:04;23.80;99.90
44190;DHT22;29856;52.144;5.430;2022-08-19T14:11:29;24.00;99.90
44190;DHT22;29856;52.144;5.430;2022-08-19T14:13:55;24.10;99.90
44190;DHT22;29856;52.144;5.430;2022-08-19T14:16:20;24.20;99.90
44190;DHT22;29856;52.144;5.430;2022-08-19T14:18:46;24.40;99.90
44190;DHT22;29856;52.144;5.430;2022-08-19T14:21:17;24.40;99.90
44190;DHT22;29856;52.144;5.430;2022-08-19T14:23:44;24.50;99.90
44190;DHT22;29856;52.144;5.430;2022-08-19T14:26:14;24.60;99.90
44190;DHT22;29856;52.144;5.430;2022-08-19T14:28:41;24.70;99.90
44190;DHT22;29856;52.144;5.430;2022-08-19T14:31:08;24.40;99.90
44190;DHT22;29856;52.144;5.430;2022-08-19T14:33:33;24.20;99.90
44190;DHT22;29856;52.144;5.430;2022-08-19T14:35:59;24.20;99.90
44190;DHT22;29856;52.144;5.430;2022-08-19T14:38:24;24.10;99.90
44190;DHT22;29856;52.144;5.430;2022-08-19T14:40:50;24.00;99.90
44190;DHT22;29856;52.144;5.430;2022-08-19T14:43:15;23.90;99.90
44190;DHT22;29856;52.144;5.430;2022-08-19T14:45:40;24.00;99.90
44190;DHT22;29856;52.144;5.430;2022-08-19T14:48:07;24.00;99.90
44190;DHT22;29856;52.144;5.430;2022-08-19T14:50:34;24.00;99.90
44190;DHT22;29856;52.144;5.430;2022-08-19T14:53:02;24.10;99.90
44190;DHT22;29856;52.144;5.430;2022-08-19T14:55:28;24.10;99.90
44190;DHT22;29856;52.144;5.430;2022-08-19T14:57:54;24.20;99.90
44190;DHT22;29856;52.144;5.430;2022-08-19T15:00:19;24.30;99.90
44190;DHT22;29856;52.144;5.430;2022-08-19T15:02:45;24.20;99.90
44190;DHT22;29856;52.144;5.430;2022-08-19T15:05:10;24.30;99.90
44190;DHT22;29856;52.144;5.430;2022-08-19T15:07:37;24.30;99.90
44190;DHT22;29856;52.144;5.430;2022-08-19T15:10:04;24.40;99.90
44190;DHT22;29856;52.144;5.430;2022-08-19T15:12:29;24.40;99.90
44190;DHT22;29856;52.144;5.430;2022-08-19T15:14:55;24.30;99.90
44190;DHT22;29856;52.144;5.430;2022-08-19T15:17:21;24.40;99.90
44190;DHT22;29856;52.144;5.430;2022-08-19T15:19:46;24.40;99.90
44190;DHT22;29856;52.144;5.430;2022-08-19T15:22:12;24.40;99.90
44190;DHT22;29856;52.144;5.430;2022-08-19T15:24:37;24.40;99.90
44190;DHT22;29856;52.144;5.430;2022-08-19T15:27:04;24.50;99.90
44190;DHT22;29856;52.144;5.430;2022-08-19T15:29:29;24.60;99.90
44190;DHT22;29856;52.144;5.430;2022-08-19T15:31:55;24.80;99.90
44190;DHT22;29856;52.144;5.430;2022-08-19T15:34:21;24.90;99.90